Terminal Aerodrome Forecast
Issued by NWS

Home | Current Version | Previous Version | Text Only | Print | Product List | Glossary On
Versions: 1 2 3 4 5 6 7 8 9 10 11 12 13 14 15 16 17 18 19 20 21 22 23
000
FTUS44 KMAF 291700 RRA
TAFPEQ
TAF
KPEQ 291753Z 2918/3018 VRB06KT P6SM FEW060
     FM301200 05014G22KT 5SM BR SCT020 BKN030
      TEMPO 3012/3015 BKN010=

USA.gov is the U.S. government's official web portal to all federal, state and local government web resources and services.